Terminal Aerodrome Forecast
Issued by NWS Green Bay, WI

Home | Current Version | Previous Version | Graphics & Text | Print | Product List | Glossary On
Versions: 1 2 3 4 5 6 7 8 9 10 11 12 13 14 15 16 17 18 19 20 21 22 23
000
FTUS43 KGRB 222222 AAA
TAFGRB
TAF AMD
KGRB 222222Z 2222/2318 25004KT P6SM SCT150
     FM230200 32004KT P6SM SCT030 BKN150
     FM230600 33006KT 5SM BR BKN013
     FM231200 02008G15KT P6SM BKN040=

USA.gov is the U.S. government's official web portal to all federal, state and local government web resources and services.